createdAt,value
2022-10-08T00:01:58.990Z,16.52
2022-10-08T00:07:01.487Z,16.50
2022-10-08T00:12:03.420Z,16.48
2022-10-08T00:17:06.465Z,16.45
2022-10-08T00:22:08.619Z,16.39
2022-10-08T00:27:12.971Z,16.36
2022-10-08T00:32:17.491Z,16.29
2022-10-08T00:37:19.524Z,16.21
2022-10-08T00:42:21.907Z,16.19
2022-10-08T00:47:33.178Z,16.17
2022-10-08T00:52:37.753Z,16.16
2022-10-08T00:57:41.192Z,16.16
2022-10-08T01:02:44.407Z,16.16
2022-10-08T01:08:04.621Z,16.15
2022-10-08T01:13:20.249Z,16.13
2022-10-08T01:18:32.976Z,16.13
2022-10-08T01:23:37.909Z,16.13
2022-10-08T01:28:56.235Z,16.10
2022-10-08T01:34:23.562Z,16.08
2022-10-08T01:39:31.382Z,16.06
2022-10-08T01:44:43.032Z,16.07
2022-10-08T01:49:52.800Z,16.06
2022-10-08T01:55:02.031Z,16.06
2022-10-08T02:00:09.244Z,16.07
2022-10-08T02:05:14.090Z,16.08
2022-10-08T02:10:19.971Z,16.07
2022-10-08T02:15:51.722Z,16.06
2022-10-08T02:21:02.064Z,16.03
2022-10-08T02:26:08.357Z,16.02
2022-10-08T02:31:19.397Z,16.01
2022-10-08T02:36:31.306Z,15.98
2022-10-08T02:41:38.371Z,15.94
2022-10-08T02:46:44.329Z,15.91
2022-10-08T02:51:49.992Z,15.86
2022-10-08T02:56:58.905Z,15.81
2022-10-08T03:02:03.216Z,15.78
2022-10-08T03:07:06.046Z,15.76
2022-10-08T03:12:08.159Z,15.74
2022-10-08T03:17:15.064Z,15.72
2022-10-08T03:22:18.038Z,15.70
2022-10-08T03:27:20.041Z,15.69
2022-10-08T03:32:22.214Z,15.64
2022-10-08T03:37:24.150Z,15.65
2022-10-08T03:42:26.443Z,15.64
2022-10-08T03:47:29.328Z,15.65
2022-10-08T03:52:31.817Z,15.67
2022-10-08T03:57:33.682Z,15.68
2022-10-08T04:02:35.661Z,15.69
2022-10-08T04:07:37.869Z,15.66
2022-10-08T04:12:39.766Z,15.65
2022-10-08T04:17:44.256Z,15.66
2022-10-08T04:22:49.333Z,15.64
2022-10-08T04:27:52.043Z,15.63
2022-10-08T04:32:54.143Z,15.63
2022-10-08T04:37:55.833Z,15.63
2022-10-08T04:42:58.038Z,15.64
2022-10-08T04:48:01.617Z,15.62
2022-10-08T04:53:03.776Z,15.63
2022-10-08T04:58:05.884Z,15.61
2022-10-08T05:03:08.220Z,15.61
2022-10-08T05:08:10.180Z,15.62
2022-10-08T05:13:13.101Z,15.63
2022-10-08T05:18:17.496Z,15.63
2022-10-08T05:23:19.403Z,15.64
2022-10-08T05:28:21.455Z,15.65
2022-10-08T05:33:23.354Z,15.66
2022-10-08T05:38:25.298Z,15.67
2022-10-08T05:43:27.433Z,15.66
2022-10-08T05:48:29.449Z,15.66
2022-10-08T05:53:31.460Z,15.68
2022-10-08T05:58:39.675Z,15.70
2022-10-08T06:03:42.012Z,15.74
2022-10-08T06:08:47.434Z,15.77
2022-10-08T06:13:53.322Z,15.83
2022-10-08T06:18:55.233Z,15.86
2022-10-08T06:23:59.242Z,15.89
2022-10-08T06:29:01.595Z,15.91
2022-10-08T06:34:04.635Z,15.93
2022-10-08T06:39:11.517Z,15.95
2022-10-08T06:44:15.412Z,15.97
2022-10-08T06:49:18.558Z,15.98
2022-10-08T06:54:22.348Z,16.00
2022-10-08T06:59:24.688Z,15.99
2022-10-08T07:04:26.634Z,16.00
2022-10-08T07:09:28.335Z,16.02
2022-10-08T07:14:29.945Z,16.02
2022-10-08T07:19:31.704Z,16.04
2022-10-08T07:24:33.953Z,16.08
2022-10-08T07:29:36.865Z,16.11
2022-10-08T07:34:38.809Z,16.14
2022-10-08T07:39:41.585Z,16.19
2022-10-08T07:44:43.359Z,16.23
2022-10-08T07:49:45.137Z,16.27
2022-10-08T07:54:46.731Z,16.31
2022-10-08T07:59:48.413Z,16.33
2022-10-08T08:04:50.127Z,16.38
2022-10-08T08:09:51.917Z,16.42
2022-10-08T08:14:53.949Z,16.47
2022-10-08T08:19:56.774Z,16.54
2022-10-08T08:24:58.744Z,16.58
2022-10-08T08:30:00.733Z,16.66
2022-10-08T08:35:02.921Z,16.72
2022-10-08T08:40:04.863Z,16.77
2022-10-08T08:45:41.841Z,16.81
2022-10-08T08:50:48.845Z,16.86
2022-10-08T08:55:55.539Z,16.92
2022-10-08T09:01:10.099Z,16.99
2022-10-08T09:06:15.163Z,17.06
2022-10-08T09:11:21.481Z,17.15
2022-10-08T09:16:23.256Z,17.20
2022-10-08T09:21:25.627Z,17.28
2022-10-08T09:26:34.272Z,17.35
2022-10-08T09:31:38.962Z,17.40
2022-10-08T09:36:44.715Z,17.47
2022-10-08T09:41:55.753Z,17.55
2022-10-08T09:47:07.319Z,17.62
2022-10-08T09:52:28.762Z,17.69
2022-10-08T09:57:33.584Z,17.77
2022-10-08T10:02:37.907Z,17.86
2022-10-08T10:07:45.831Z,17.89
2022-10-08T10:12:56.049Z,17.96
2022-10-08T10:18:12.950Z,18.04
2022-10-08T10:23:50.472Z,18.08
2022-10-08T10:29:00.271Z,18.14
2022-10-08T10:34:11.254Z,18.19
2022-10-08T10:39:22.171Z,18.21
2022-10-08T10:44:34.406Z,18.22
2022-10-08T10:49:41.386Z,18.26
2022-10-08T10:55:16.046Z,18.27
2022-10-08T11:00:27.267Z,18.32
2022-10-08T11:05:36.145Z,18.39
2022-10-08T11:11:04.267Z,18.48
2022-10-08T11:16:21.066Z,18.53
2022-10-08T11:21:55.173Z,18.61
2022-10-08T11:27:07.673Z,18.67
2022-10-08T11:32:15.321Z,18.72
2022-10-08T11:37:39.793Z,18.82
2022-10-08T11:43:08.601Z,18.87
2022-10-08T11:48:32.025Z,18.93
2022-10-08T11:53:34.087Z,18.99
2022-10-08T11:58:37.231Z,19.05
2022-10-08T12:03:42.032Z,19.12
2022-10-08T12:08:53.589Z,19.12
2022-10-08T12:14:26.847Z,19.12
2022-10-08T12:19:35.854Z,19.13
2022-10-08T12:24:40.546Z,19.12
2022-10-08T12:30:05.144Z,19.11
2022-10-08T12:35:18.581Z,19.10
2022-10-08T12:40:49.501Z,19.10
2022-10-08T12:46:19.278Z,19.06
2022-10-08T12:52:01.070Z,19.03
2022-10-08T12:57:09.946Z,19.07
2022-10-08T13:02:38.358Z,19.06
2022-10-08T13:07:39.994Z,19.10
2022-10-08T13:12:43.912Z,19.13
2022-10-08T13:17:45.905Z,19.16
2022-10-08T13:22:48.204Z,19.22
2022-10-08T13:28:08.417Z,19.10
2022-10-08T13:33:23.037Z,19.07
2022-10-08T13:38:32.227Z,19.01
2022-10-08T13:43:34.602Z,19.01
2022-10-08T13:48:43.070Z,19.04
2022-10-08T13:53:45.854Z,19.05
2022-10-08T13:58:47.632Z,19.08
2022-10-08T14:03:49.425Z,19.04
2022-10-08T14:08:51.160Z,19.05
2022-10-08T14:13:52.820Z,19.08
2022-10-08T14:18:57.892Z,19.08
2022-10-08T14:24:01.636Z,19.10
2022-10-08T14:29:03.528Z,19.20
2022-10-08T14:34:05.613Z,19.19
2022-10-08T14:39:08.189Z,19.21
2022-10-08T14:44:10.086Z,19.15
2022-10-08T14:49:11.966Z,19.16
2022-10-08T14:54:14.177Z,19.17
2022-10-08T14:59:19.410Z,19.14
2022-10-08T15:04:21.254Z,19.02
2022-10-08T15:09:23.188Z,18.96
2022-10-08T15:14:25.063Z,18.84
2022-10-08T15:19:26.975Z,18.75
2022-10-08T15:24:28.846Z,18.69
2022-10-08T15:29:30.499Z,18.74
2022-10-08T15:34:32.198Z,18.76
2022-10-08T15:39:35.974Z,18.79
2022-10-08T15:44:38.425Z,18.87
2022-10-08T15:49:42.084Z,18.97
2022-10-08T15:54:44.226Z,19.11
2022-10-08T15:59:46.358Z,19.21
2022-10-08T16:04:48.637Z,19.37
2022-10-08T16:09:50.264Z,19.39
2022-10-08T16:14:51.898Z,19.41
2022-10-08T16:19:53.587Z,19.38
2022-10-08T16:24:55.204Z,19.36
2022-10-08T16:29:57.043Z,19.29
2022-10-08T16:34:58.618Z,19.18
2022-10-08T16:40:04.011Z,19.04
2022-10-08T16:45:08.137Z,18.95
2022-10-08T16:50:10.292Z,18.82
2022-10-08T16:55:12.508Z,18.71
2022-10-08T17:00:14.652Z,18.59
2022-10-08T17:05:17.545Z,18.47
2022-10-08T17:10:19.534Z,18.39
2022-10-08T17:15:21.167Z,18.30
2022-10-08T17:20:23.177Z,18.19
2022-10-08T17:25:24.859Z,18.10
2022-10-08T17:30:26.664Z,18.02
2022-10-08T17:35:28.460Z,17.91
2022-10-08T17:40:31.098Z,17.78
2022-10-08T17:45:33.294Z,17.64
2022-10-08T17:50:36.375Z,17.52
2022-10-08T17:55:38.143Z,17.41
2022-10-08T18:00:39.936Z,17.31
2022-10-08T18:05:41.594Z,17.21
2022-10-08T18:10:43.196Z,17.16
2022-10-08T18:15:45.287Z,17.06
2022-10-08T18:20:57.769Z,17.02
2022-10-08T18:26:17.338Z,16.98
2022-10-08T18:31:21.060Z,16.92
2022-10-08T18:36:25.293Z,16.90
2022-10-08T18:41:29.829Z,16.86
2022-10-08T18:46:33.734Z,16.79
2022-10-08T18:51:35.692Z,16.74
2022-10-08T18:56:39.716Z,16.68
2022-10-08T19:01:46.463Z,16.61
2022-10-08T19:06:52.180Z,16.60
2022-10-08T19:11:54.524Z,16.54
2022-10-08T19:16:56.136Z,16.49
2022-10-08T19:22:00.599Z,16.40
2022-10-08T19:27:02.225Z,16.32
2022-10-08T19:32:04.197Z,16.24
2022-10-08T19:37:08.464Z,16.19
2022-10-08T19:42:10.461Z,16.14
2022-10-08T19:47:12.284Z,16.11
2022-10-08T19:52:14.946Z,16.07
2022-10-08T19:57:16.599Z,15.99
2022-10-08T20:02:18.288Z,15.94
2022-10-08T20:07:26.114Z,15.91
2022-10-08T20:12:28.192Z,15.80
2022-10-08T20:17:30.904Z,15.72
2022-10-08T20:22:32.658Z,15.69
2022-10-08T20:27:34.275Z,15.61
2022-10-08T20:32:37.706Z,15.55
2022-10-08T20:37:39.401Z,15.50
2022-10-08T20:42:41.515Z,15.41
2022-10-08T20:47:43.019Z,15.36
2022-10-08T20:52:44.931Z,15.30
2022-10-08T20:57:46.929Z,15.24
2022-10-08T21:02:48.800Z,15.20
2022-10-08T21:07:50.765Z,15.11
2022-10-08T21:12:53.803Z,15.02
2022-10-08T21:17:58.313Z,15.00
2022-10-08T21:22:59.955Z,14.98
2022-10-08T21:28:01.687Z,14.99
2022-10-08T21:33:03.767Z,14.97
2022-10-08T21:38:05.540Z,14.94
2022-10-08T21:43:07.150Z,14.91
2022-10-08T21:48:08.952Z,14.87
2022-10-08T21:53:10.718Z,14.80
2022-10-08T21:58:12.454Z,14.73
2022-10-08T22:03:15.763Z,14.64
2022-10-08T22:08:17.723Z,14.59
2022-10-08T22:13:21.003Z,14.58
2022-10-08T22:18:26.057Z,14.58
2022-10-08T22:23:27.718Z,14.60
2022-10-08T22:28:30.684Z,14.59
2022-10-08T22:33:32.889Z,14.54
2022-10-08T22:38:37.033Z,14.49
2022-10-08T22:43:40.735Z,14.41
2022-10-08T22:48:43.826Z,14.35
2022-10-08T22:53:46.366Z,14.30
2022-10-08T22:58:49.197Z,14.23
2022-10-08T23:03:51.627Z,14.18
2022-10-08T23:09:06.240Z,14.10
2022-10-08T23:14:09.711Z,14.03
2022-10-08T23:19:12.049Z,13.97
2022-10-08T23:24:13.883Z,13.92
2022-10-08T23:29:16.803Z,13.86
2022-10-08T23:34:19.986Z,13.82
2022-10-08T23:39:22.137Z,13.77
2022-10-08T23:44:23.840Z,13.72
2022-10-08T23:49:25.474Z,13.66
2022-10-08T23:54:27.517Z,13.62
2022-10-08T23:59:29.258Z,13.58
